sensor_id;sensor_type;location;lat;lon;timestamp;P1;durP1;ratioP1;P2;durP2;ratioP2
53497;SDS011;39382;47.168;16.008;2023-05-09T00:00:14;7.72;;;4.88;;
53497;SDS011;39382;47.168;16.008;2023-05-09T00:02:40;7.57;;;4.50;;
53497;SDS011;39382;47.168;16.008;2023-05-09T00:05:10;10.20;;;5.82;;
53497;SDS011;39382;47.168;16.008;2023-05-09T00:07:36;6.45;;;4.53;;
53497;SDS011;39382;47.168;16.008;2023-05-09T00:10:02;7.15;;;4.97;;
53497;SDS011;39382;47.168;16.008;2023-05-09T00:12:28;6.68;;;4.30;;
53497;SDS011;39382;47.168;16.008;2023-05-09T00:14:54;8.55;;;5.53;;
53497;SDS011;39382;47.168;16.008;2023-05-09T00:17:21;5.65;;;4.32;;
53497;SDS011;39382;47.168;16.008;2023-05-09T00:19:48;5.88;;;5.00;;
53497;SDS011;39382;47.168;16.008;2023-05-09T00:22:15;5.90;;;4.75;;
53497;SDS011;39382;47.168;16.008;2023-05-09T00:24:41;5.50;;;4.38;;
53497;SDS011;39382;47.168;16.008;2023-05-09T00:27:07;7.03;;;4.78;;
53497;SDS011;39382;47.168;16.008;2023-05-09T00:29:34;7.07;;;4.93;;
53497;SDS011;39382;47.168;16.008;2023-05-09T00:31:59;7.28;;;4.57;;
53497;SDS011;39382;47.168;16.008;2023-05-09T00:34:25;9.05;;;4.40;;
53497;SDS011;39382;47.168;16.008;2023-05-09T00:36:51;6.25;;;4.30;;
53497;SDS011;39382;47.168;16.008;2023-05-09T00:39:16;7.97;;;4.68;;
53497;SDS011;39382;47.168;16.008;2023-05-09T00:41:42;8.95;;;4.60;;
53497;SDS011;39382;47.168;16.008;2023-05-09T00:44:08;6.57;;;4.45;;
53497;SDS011;39382;47.168;16.008;2023-05-09T00:46:33;8.57;;;5.15;;
53497;SDS011;39382;47.168;16.008;2023-05-09T00:48:59;8.85;;;5.05;;
53497;SDS011;39382;47.168;16.008;2023-05-09T00:51:25;8.25;;;5.00;;
53497;SDS011;39382;47.168;16.008;2023-05-09T00:53:52;7.88;;;4.20;;
53497;SDS011;39382;47.168;16.008;2023-05-09T00:56:18;6.18;;;4.20;;
53497;SDS011;39382;47.168;16.008;2023-05-09T00:58:44;6.15;;;4.22;;
53497;SDS011;39382;47.168;16.008;2023-05-09T01:01:09;8.85;;;4.53;;
53497;SDS011;39382;47.168;16.008;2023-05-09T01:03:37;6.40;;;4.55;;
53497;SDS011;39382;47.168;16.008;2023-05-09T01:06:12;5.35;;;4.05;;
53497;SDS011;39382;47.168;16.008;2023-05-09T01:11:33;5.18;;;4.35;;
53497;SDS011;39382;47.168;16.008;2023-05-09T01:14:17;5.22;;;3.80;;
53497;SDS011;39382;47.168;16.008;2023-05-09T01:19:49;5.88;;;3.92;;
53497;SDS011;39382;47.168;16.008;2023-05-09T01:22:40;4.85;;;3.70;;
53497;SDS011;39382;47.168;16.008;2023-05-09T01:28:08;5.60;;;3.92;;
53497;SDS011;39382;47.168;16.008;2023-05-09T01:30:49;4.70;;;3.83;;
53497;SDS011;39382;47.168;16.008;2023-05-09T01:33:18;5.03;;;4.10;;
53497;SDS011;39382;47.168;16.008;2023-05-09T01:35:47;4.53;;;3.88;;
53497;SDS011;39382;47.168;16.008;2023-05-09T01:38:17;4.78;;;3.53;;
53497;SDS011;39382;47.168;16.008;2023-05-09T01:40:46;6.57;;;4.68;;
53497;SDS011;39382;47.168;16.008;2023-05-09T01:43:15;5.07;;;4.28;;
53497;SDS011;39382;47.168;16.008;2023-05-09T01:45:43;4.82;;;3.70;;
53497;SDS011;39382;47.168;16.008;2023-05-09T01:48:09;4.43;;;3.97;;
53497;SDS011;39382;47.168;16.008;2023-05-09T01:50:37;5.43;;;4.28;;
53497;SDS011;39382;47.168;16.008;2023-05-09T01:53:05;7.80;;;4.57;;
53497;SDS011;39382;47.168;16.008;2023-05-09T01:55:32;6.03;;;3.50;;
53497;SDS011;39382;47.168;16.008;2023-05-09T01:58:00;5.95;;;3.85;;
53497;SDS011;39382;47.168;16.008;2023-05-09T02:00:29;5.18;;;3.90;;
53497;SDS011;39382;47.168;16.008;2023-05-09T02:02:57;5.15;;;4.05;;
53497;SDS011;39382;47.168;16.008;2023-05-09T02:05:27;6.35;;;4.13;;
53497;SDS011;39382;47.168;16.008;2023-05-09T02:07:54;5.07;;;3.72;;
53497;SDS011;39382;47.168;16.008;2023-05-09T02:10:23;5.80;;;4.22;;
53497;SDS011;39382;47.168;16.008;2023-05-09T02:12:51;5.43;;;3.92;;
53497;SDS011;39382;47.168;16.008;2023-05-09T02:15:17;7.75;;;3.85;;
53497;SDS011;39382;47.168;16.008;2023-05-09T02:17:43;5.32;;;4.07;;
53497;SDS011;39382;47.168;16.008;2023-05-09T02:20:08;4.07;;;3.20;;
53497;SDS011;39382;47.168;16.008;2023-05-09T02:22:36;3.92;;;3.53;;
53497;SDS011;39382;47.168;16.008;2023-05-09T02:25:03;3.40;;;2.90;;
53497;SDS011;39382;47.168;16.008;2023-05-09T02:27:31;5.65;;;3.85;;
53497;SDS011;39382;47.168;16.008;2023-05-09T02:29:58;5.47;;;3.58;;
53497;SDS011;39382;47.168;16.008;2023-05-09T02:32:30;4.30;;;3.15;;
53497;SDS011;39382;47.168;16.008;2023-05-09T02:34:58;4.55;;;3.20;;
53497;SDS011;39382;47.168;16.008;2023-05-09T02:37:26;3.70;;;2.65;;
53497;SDS011;39382;47.168;16.008;2023-05-09T02:39:52;6.55;;;3.60;;
53497;SDS011;39382;47.168;16.008;2023-05-09T02:42:23;7.30;;;3.30;;
53497;SDS011;39382;47.168;16.008;2023-05-09T02:44:50;4.88;;;3.78;;
53497;SDS011;39382;47.168;16.008;2023-05-09T02:47:17;3.75;;;3.08;;
53497;SDS011;39382;47.168;16.008;2023-05-09T02:49:43;4.35;;;3.42;;
53497;SDS011;39382;47.168;16.008;2023-05-09T02:52:09;4.13;;;2.97;;
53497;SDS011;39382;47.168;16.008;2023-05-09T02:54:35;5.97;;;3.85;;
53497;SDS011;39382;47.168;16.008;2023-05-09T02:57:01;5.47;;;3.90;;
53497;SDS011;39382;47.168;16.008;2023-05-09T02:59:27;4.22;;;3.55;;
53497;SDS011;39382;47.168;16.008;2023-05-09T03:01:53;4.38;;;2.97;;
53497;SDS011;39382;47.168;16.008;2023-05-09T03:04:19;4.30;;;3.30;;
53497;SDS011;39382;47.168;16.008;2023-05-09T03:06:45;4.32;;;3.20;;
53497;SDS011;39382;47.168;16.008;2023-05-09T03:09:10;5.50;;;3.70;;
53497;SDS011;39382;47.168;16.008;2023-05-09T03:11:36;4.80;;;3.40;;
53497;SDS011;39382;47.168;16.008;2023-05-09T03:14:02;3.85;;;3.38;;
53497;SDS011;39382;47.168;16.008;2023-05-09T03:16:28;4.57;;;3.15;;
53497;SDS011;39382;47.168;16.008;2023-05-09T03:18:54;3.58;;;2.75;;
53497;SDS011;39382;47.168;16.008;2023-05-09T03:21:20;5.35;;;3.33;;
53497;SDS011;39382;47.168;16.008;2023-05-09T03:23:46;4.97;;;3.88;;
53497;SDS011;39382;47.168;16.008;2023-05-09T03:26:12;3.90;;;2.85;;
53497;SDS011;39382;47.168;16.008;2023-05-09T03:28:37;3.90;;;3.28;;
53497;SDS011;39382;47.168;16.008;2023-05-09T03:31:03;4.88;;;2.80;;
53497;SDS011;39382;47.168;16.008;2023-05-09T03:33:29;4.70;;;3.30;;
53497;SDS011;39382;47.168;16.008;2023-05-09T03:35:55;4.18;;;3.35;;
53497;SDS011;39382;47.168;16.008;2023-05-09T03:38:20;3.40;;;2.75;;
53497;SDS011;39382;47.168;16.008;2023-05-09T03:40:49;3.60;;;2.38;;
53497;SDS011;39382;47.168;16.008;2023-05-09T03:43:15;4.05;;;2.90;;
53497;SDS011;39382;47.168;16.008;2023-05-09T03:45:41;4.80;;;2.63;;
53497;SDS011;39382;47.168;16.008;2023-05-09T03:48:07;4.05;;;3.33;;
53497;SDS011;39382;47.168;16.008;2023-05-09T03:50:34;4.57;;;3.20;;
53497;SDS011;39382;47.168;16.008;2023-05-09T03:53:00;3.17;;;2.60;;
53497;SDS011;39382;47.168;16.008;2023-05-09T03:55:26;5.13;;;3.08;;
53497;SDS011;39382;47.168;16.008;2023-05-09T03:57:52;2.92;;;2.40;;
53497;SDS011;39382;47.168;16.008;2023-05-09T04:00:18;3.83;;;2.90;;
53497;SDS011;39382;47.168;16.008;2023-05-09T04:02:45;5.50;;;3.13;;
53497;SDS011;39382;47.168;16.008;2023-05-09T04:05:11;5.75;;;3.80;;
53497;SDS011;39382;47.168;16.008;2023-05-09T04:07:37;3.50;;;2.88;;
53497;SDS011;39382;47.168;16.008;2023-05-09T04:10:03;4.50;;;2.92;;
53497;SDS011;39382;47.168;16.008;2023-05-09T04:12:28;3.90;;;3.47;;
53497;SDS011;39382;47.168;16.008;2023-05-09T04:14:54;9.95;;;3.88;;
53497;SDS011;39382;47.168;16.008;2023-05-09T04:17:20;3.75;;;3.00;;
53497;SDS011;39382;47.168;16.008;2023-05-09T04:19:45;10.15;;;3.83;;
53497;SDS011;39382;47.168;16.008;2023-05-09T04:22:11;5.22;;;3.58;;
53497;SDS011;39382;47.168;16.008;2023-05-09T04:24:36;5.90;;;4.32;;
53497;SDS011;39382;47.168;16.008;2023-05-09T04:27:02;7.03;;;3.83;;
53497;SDS011;39382;47.168;16.008;2023-05-09T04:29:28;5.70;;;3.72;;
53497;SDS011;39382;47.168;16.008;2023-05-09T04:31:54;7.05;;;3.78;;
53497;SDS011;39382;47.168;16.008;2023-05-09T04:34:19;4.57;;;3.60;;
53497;SDS011;39382;47.168;16.008;2023-05-09T04:36:45;4.35;;;3.72;;
53497;SDS011;39382;47.168;16.008;2023-05-09T04:39:11;3.17;;;2.85;;
53497;SDS011;39382;47.168;16.008;2023-05-09T04:41:36;4.70;;;3.35;;
53497;SDS011;39382;47.168;16.008;2023-05-09T04:44:02;10.48;;;3.42;;
53497;SDS011;39382;47.168;16.008;2023-05-09T04:46:28;5.00;;;3.55;;
53497;SDS011;39382;47.168;16.008;2023-05-09T04:48:54;4.35;;;3.10;;
53497;SDS011;39382;47.168;16.008;2023-05-09T04:51:20;3.33;;;2.92;;
53497;SDS011;39382;47.168;16.008;2023-05-09T04:53:45;4.97;;;2.92;;
53497;SDS011;39382;47.168;16.008;2023-05-09T04:56:11;7.05;;;3.88;;
53497;SDS011;39382;47.168;16.008;2023-05-09T04:58:36;2.88;;;2.50;;
53497;SDS011;39382;47.168;16.008;2023-05-09T05:01:03;3.05;;;2.75;;
53497;SDS011;39382;47.168;16.008;2023-05-09T05:03:29;5.40;;;3.20;;
53497;SDS011;39382;47.168;16.008;2023-05-09T05:05:55;3.60;;;3.10;;
53497;SDS011;39382;47.168;16.008;2023-05-09T05:08:21;4.30;;;3.03;;
53497;SDS011;39382;47.168;16.008;2023-05-09T05:10:46;4.05;;;2.63;;
53497;SDS011;39382;47.168;16.008;2023-05-09T05:13:13;2.40;;;2.20;;
53497;SDS011;39382;47.168;16.008;2023-05-09T05:15:39;4.40;;;2.88;;
53497;SDS011;39382;47.168;16.008;2023-05-09T05:18:05;5.57;;;2.50;;
53497;SDS011;39382;47.168;16.008;2023-05-09T05:20:31;6.82;;;3.00;;
53497;SDS011;39382;47.168;16.008;2023-05-09T05:22:57;3.35;;;2.20;;
53497;SDS011;39382;47.168;16.008;2023-05-09T05:25:26;7.70;;;2.97;;
53497;SDS011;39382;47.168;16.008;2023-05-09T05:27:52;7.90;;;2.90;;
53497;SDS011;39382;47.168;16.008;2023-05-09T05:30:17;2.70;;;2.47;;
53497;SDS011;39382;47.168;16.008;2023-05-09T05:32:44;3.10;;;2.13;;
53497;SDS011;39382;47.168;16.008;2023-05-09T05:35:10;3.50;;;2.72;;
53497;SDS011;39382;47.168;16.008;2023-05-09T05:37:37;4.18;;;2.65;;
53497;SDS011;39382;47.168;16.008;2023-05-09T05:40:03;3.28;;;1.73;;
53497;SDS011;39382;47.168;16.008;2023-05-09T05:42:30;6.07;;;2.72;;
53497;SDS011;39382;47.168;16.008;2023-05-09T05:44:56;3.60;;;2.70;;
53497;SDS011;39382;47.168;16.008;2023-05-09T05:47:21;3.35;;;2.38;;
53497;SDS011;39382;47.168;16.008;2023-05-09T05:49:47;5.30;;;1.98;;
53497;SDS011;39382;47.168;16.008;2023-05-09T05:52:12;2.67;;;1.92;;
53497;SDS011;39382;47.168;16.008;2023-05-09T05:54:38;2.08;;;1.88;;
53497;SDS011;39382;47.168;16.008;2023-05-09T05:57:04;1.95;;;1.48;;
53497;SDS011;39382;47.168;16.008;2023-05-09T05:59:30;2.05;;;1.85;;
53497;SDS011;39382;47.168;16.008;2023-05-09T06:01:55;1.95;;;1.60;;
53497;SDS011;39382;47.168;16.008;2023-05-09T06:04:21;5.43;;;2.33;;
53497;SDS011;39382;47.168;16.008;2023-05-09T06:06:46;2.10;;;1.83;;
53497;SDS011;39382;47.168;16.008;2023-05-09T06:09:12;2.13;;;1.75;;
53497;SDS011;39382;47.168;16.008;2023-05-09T06:11:38;2.03;;;1.40;;
53497;SDS011;39382;47.168;16.008;2023-05-09T06:14:03;2.13;;;1.60;;
53497;SDS011;39382;47.168;16.008;2023-05-09T06:16:29;3.45;;;2.00;;
53497;SDS011;39382;47.168;16.008;2023-05-09T06:18:55;3.50;;;2.17;;
53497;SDS011;39382;47.168;16.008;2023-05-09T06:21:20;5.40;;;1.90;;
53497;SDS011;39382;47.168;16.008;2023-05-09T06:23:46;2.20;;;1.83;;
53497;SDS011;39382;47.168;16.008;2023-05-09T06:26:12;3.92;;;2.40;;
53497;SDS011;39382;47.168;16.008;2023-05-09T06:28:38;3.65;;;2.35;;
53497;SDS011;39382;47.168;16.008;2023-05-09T06:31:04;4.28;;;1.92;;
53497;SDS011;39382;47.168;16.008;2023-05-09T06:33:30;3.42;;;2.35;;
53497;SDS011;39382;47.168;16.008;2023-05-09T06:35:57;2.33;;;1.98;;
53497;SDS011;39382;47.168;16.008;2023-05-09T06:38:24;2.85;;;1.95;;
53497;SDS011;39382;47.168;16.008;2023-05-09T06:40:49;2.35;;;1.90;;
53497;SDS011;39382;47.168;16.008;2023-05-09T06:43:15;1.70;;;1.60;;
53497;SDS011;39382;47.168;16.008;2023-05-09T06:45:41;4.15;;;1.85;;
53497;SDS011;39382;47.168;16.008;2023-05-09T06:48:06;2.00;;;1.80;;
53497;SDS011;39382;47.168;16.008;2023-05-09T06:50:32;4.70;;;2.10;;
53497;SDS011;39382;47.168;16.008;2023-05-09T06:52:57;5.20;;;1.90;;
53497;SDS011;39382;47.168;16.008;2023-05-09T06:55:23;3.42;;;2.22;;
53497;SDS011;39382;47.168;16.008;2023-05-09T06:57:49;3.13;;;2.05;;
53497;SDS011;39382;47.168;16.008;2023-05-09T07:00:15;4.05;;;1.58;;
53497;SDS011;39382;47.168;16.008;2023-05-09T07:02:41;2.17;;;1.80;;
53497;SDS011;39382;47.168;16.008;2023-05-09T07:05:07;2.40;;;2.00;;
53497;SDS011;39382;47.168;16.008;2023-05-09T07:07:33;2.72;;;1.67;;
53497;SDS011;39382;47.168;16.008;2023-05-09T07:09:59;4.60;;;1.83;;
53497;SDS011;39382;47.168;16.008;2023-05-09T07:12:27;4.82;;;2.22;;
53497;SDS011;39382;47.168;16.008;2023-05-09T07:14:55;4.45;;;2.13;;
53497;SDS011;39382;47.168;16.008;2023-05-09T07:17:22;2.75;;;2.17;;
53497;SDS011;39382;47.168;16.008;2023-05-09T07:19:48;5.00;;;1.75;;
53497;SDS011;39382;47.168;16.008;2023-05-09T07:22:14;1.75;;;1.40;;
53497;SDS011;39382;47.168;16.008;2023-05-09T07:24:40;2.65;;;1.73;;
53497;SDS011;39382;47.168;16.008;2023-05-09T07:27:05;3.33;;;1.85;;
53497;SDS011;39382;47.168;16.008;2023-05-09T07:29:31;5.68;;;2.20;;
53497;SDS011;39382;47.168;16.008;2023-05-09T07:31:57;2.35;;;1.95;;
53497;SDS011;39382;47.168;16.008;2023-05-09T07:34:22;2.67;;;1.98;;
53497;SDS011;39382;47.168;16.008;2023-05-09T07:36:49;3.97;;;2.30;;
53497;SDS011;39382;47.168;16.008;2023-05-09T07:39:15;4.95;;;3.38;;
53497;SDS011;39382;47.168;16.008;2023-05-09T07:41:40;3.80;;;3.03;;
53497;SDS011;39382;47.168;16.008;2023-05-09T07:44:06;1.80;;;1.40;;
53497;SDS011;39382;47.168;16.008;2023-05-09T07:46:33;6.50;;;2.13;;
53497;SDS011;39382;47.168;16.008;2023-05-09T07:49:01;1.98;;;1.77;;
53497;SDS011;39382;47.168;16.008;2023-05-09T07:51:27;2.10;;;1.90;;
53497;SDS011;39382;47.168;16.008;2023-05-09T07:53:53;2.90;;;1.95;;
53497;SDS011;39382;47.168;16.008;2023-05-09T07:56:20;1.50;;;1.30;;
53497;SDS011;39382;47.168;16.008;2023-05-09T07:58:47;2.80;;;2.00;;
53497;SDS011;39382;47.168;16.008;2023-05-09T08:01:12;2.35;;;1.75;;
53497;SDS011;39382;47.168;16.008;2023-05-09T08:03:38;4.47;;;1.50;;
53497;SDS011;39382;47.168;16.008;2023-05-09T08:06:04;2.05;;;1.42;;
53497;SDS011;39382;47.168;16.008;2023-05-09T08:08:30;6.50;;;2.08;;
53497;SDS011;39382;47.168;16.008;2023-05-09T08:10:55;3.50;;;1.63;;
53497;SDS011;39382;47.168;16.008;2023-05-09T08:13:21;2.75;;;1.70;;
53497;SDS011;39382;47.168;16.008;2023-05-09T08:15:47;2.10;;;1.60;;
53497;SDS011;39382;47.168;16.008;2023-05-09T08:18:13;2.00;;;1.60;;
53497;SDS011;39382;47.168;16.008;2023-05-09T08:20:39;2.42;;;1.92;;
53497;SDS011;39382;47.168;16.008;2023-05-09T08:23:05;1.88;;;1.63;;
53497;SDS011;39382;47.168;16.008;2023-05-09T08:25:31;1.98;;;1.77;;
53497;SDS011;39382;47.168;16.008;2023-05-09T08:27:57;3.78;;;1.60;;
53497;SDS011;39382;47.168;16.008;2023-05-09T08:30:22;1.80;;;1.63;;
53497;SDS011;39382;47.168;16.008;2023-05-09T08:32:48;2.47;;;1.60;;
53497;SDS011;39382;47.168;16.008;2023-05-09T08:35:14;2.17;;;1.75;;
53497;SDS011;39382;47.168;16.008;2023-05-09T08:37:40;3.53;;;1.95;;
53497;SDS011;39382;47.168;16.008;2023-05-09T08:40:06;3.95;;;1.60;;
53497;SDS011;39382;47.168;16.008;2023-05-09T08:42:32;4.65;;;1.92;;
53497;SDS011;39382;47.168;16.008;2023-05-09T08:45:00;2.35;;;1.95;;
53497;SDS011;39382;47.168;16.008;2023-05-09T08:47:33;9.05;;;2.40;;
53497;SDS011;39382;47.168;16.008;2023-05-09T08:50:02;5.15;;;2.20;;
53497;SDS011;39382;47.168;16.008;2023-05-09T08:52:29;2.08;;;1.70;;
53497;SDS011;39382;47.168;16.008;2023-05-09T08:54:56;3.15;;;2.28;;
53497;SDS011;39382;47.168;16.008;2023-05-09T08:57:22;5.82;;;2.45;;
53497;SDS011;39382;47.168;16.008;2023-05-09T08:59:48;5.53;;;2.80;;
53497;SDS011;39382;47.168;16.008;2023-05-09T09:02:15;4.25;;;2.72;;
53497;SDS011;39382;47.168;16.008;2023-05-09T09:04:41;2.92;;;2.10;;
53497;SDS011;39382;47.168;16.008;2023-05-09T09:07:08;4.50;;;2.75;;
53497;SDS011;39382;47.168;16.008;2023-05-09T09:09:35;7.03;;;3.13;;
53497;SDS011;39382;47.168;16.008;2023-05-09T09:12:04;3.88;;;2.38;;
53497;SDS011;39382;47.168;16.008;2023-05-09T09:14:32;6.15;;;2.22;;
53497;SDS011;39382;47.168;16.008;2023-05-09T09:17:03;1.75;;;1.33;;
53497;SDS011;39382;47.168;16.008;2023-05-09T09:19:30;3.65;;;2.20;;
53497;SDS011;39382;47.168;16.008;2023-05-09T09:21:58;2.85;;;2.25;;
53497;SDS011;39382;47.168;16.008;2023-05-09T09:24:26;2.20;;;1.90;;
53497;SDS011;39382;47.168;16.008;2023-05-09T09:26:53;2.60;;;2.00;;
53497;SDS011;39382;47.168;16.008;2023-05-09T09:29:19;3.60;;;2.58;;
53497;SDS011;39382;47.168;16.008;2023-05-09T09:31:45;2.67;;;2.42;;
53497;SDS011;39382;47.168;16.008;2023-05-09T09:34:12;2.78;;;2.17;;
53497;SDS011;39382;47.168;16.008;2023-05-09T09:36:44;7.45;;;2.97;;
53497;SDS011;39382;47.168;16.008;2023-05-09T09:39:11;4.30;;;2.20;;
53497;SDS011;39382;47.168;16.008;2023-05-09T09:41:37;6.03;;;2.28;;
53497;SDS011;39382;47.168;16.008;2023-05-09T09:44:10;2.15;;;1.58;;
53497;SDS011;39382;47.168;16.008;2023-05-09T09:49:16;5.28;;;2.28;;
53497;SDS011;39382;47.168;16.008;2023-05-09T09:51:49;3.97;;;1.90;;
53497;SDS011;39382;47.168;16.008;2023-05-09T09:54:16;3.65;;;2.22;;
53497;SDS011;39382;47.168;16.008;2023-05-09T09:59:08;5.20;;;3.08;;
53497;SDS011;39382;47.168;16.008;2023-05-09T10:01:48;3.75;;;2.70;;
53497;SDS011;39382;47.168;16.008;2023-05-09T10:04:26;3.03;;;2.63;;
53497;SDS011;39382;47.168;16.008;2023-05-09T10:06:53;2.42;;;2.20;;
53497;SDS011;39382;47.168;16.008;2023-05-09T10:09:23;2.90;;;2.05;;
53497;SDS011;39382;47.168;16.008;2023-05-09T10:11:51;4.18;;;2.65;;
53497;SDS011;39382;47.168;16.008;2023-05-09T10:14:18;2.50;;;2.30;;
53497;SDS011;39382;47.168;16.008;2023-05-09T10:16:49;7.38;;;2.72;;
53497;SDS011;39382;47.168;16.008;2023-05-09T10:19:20;3.55;;;1.95;;
53497;SDS011;39382;47.168;16.008;2023-05-09T10:21:48;2.50;;;2.22;;
53497;SDS011;39382;47.168;16.008;2023-05-09T10:24:41;4.43;;;2.33;;
53497;SDS011;39382;47.168;16.008;2023-05-09T10:27:13;3.95;;;2.88;;
53497;SDS011;39382;47.168;16.008;2023-05-09T10:29:48;3.80;;;2.88;;
53497;SDS011;39382;47.168;16.008;2023-05-09T10:32:22;3.17;;;2.58;;
53497;SDS011;39382;47.168;16.008;2023-05-09T10:35:04;6.70;;;2.50;;
53497;SDS011;39382;47.168;16.008;2023-05-09T10:37:32;4.25;;;2.55;;
53497;SDS011;39382;47.168;16.008;2023-05-09T10:39:58;3.45;;;2.25;;
53497;SDS011;39382;47.168;16.008;2023-05-09T10:42:26;2.80;;;2.33;;
53497;SDS011;39382;47.168;16.008;2023-05-09T10:44:53;2.83;;;2.30;;
53497;SDS011;39382;47.168;16.008;2023-05-09T10:47:20;3.13;;;2.80;;
53497;SDS011;39382;47.168;16.008;2023-05-09T10:49:47;3.60;;;2.92;;
53497;SDS011;39382;47.168;16.008;2023-05-09T10:52:13;3.63;;;2.53;;
53497;SDS011;39382;47.168;16.008;2023-05-09T10:54:39;3.80;;;2.95;;
53497;SDS011;39382;47.168;16.008;2023-05-09T10:57:07;2.50;;;2.30;;
53497;SDS011;39382;47.168;16.008;2023-05-09T10:59:37;5.22;;;2.67;;
53497;SDS011;39382;47.168;16.008;2023-05-09T11:02:13;3.88;;;3.33;;
53497;SDS011;39382;47.168;16.008;2023-05-09T11:04:43;3.80;;;3.28;;
53497;SDS011;39382;47.168;16.008;2023-05-09T11:09:50;3.35;;;2.78;;
53497;SDS011;39382;47.168;16.008;2023-05-09T11:12:18;4.60;;;3.08;;
53497;SDS011;39382;47.168;16.008;2023-05-09T11:14:46;6.32;;;3.50;;
53497;SDS011;39382;47.168;16.008;2023-05-09T11:22:20;4.93;;;3.40;;
53497;SDS011;39382;47.168;16.008;2023-05-09T11:24:49;6.00;;;3.28;;
53497;SDS011;39382;47.168;16.008;2023-05-09T11:27:25;5.97;;;3.53;;
53497;SDS011;39382;47.168;16.008;2023-05-09T11:29:56;5.43;;;3.15;;
53497;SDS011;39382;47.168;16.008;2023-05-09T11:32:26;2.78;;;2.50;;
53497;SDS011;39382;47.168;16.008;2023-05-09T11:35:08;3.40;;;3.00;;
53497;SDS011;39382;47.168;16.008;2023-05-09T11:37:49;3.55;;;2.72;;
53497;SDS011;39382;47.168;16.008;2023-05-09T11:40:17;3.63;;;2.35;;
53497;SDS011;39382;47.168;16.008;2023-05-09T11:42:46;4.03;;;2.28;;
53497;SDS011;39382;47.168;16.008;2023-05-09T11:45:17;3.72;;;2.80;;
53497;SDS011;39382;47.168;16.008;2023-05-09T11:47:44;3.75;;;2.40;;
53497;SDS011;39382;47.168;16.008;2023-05-09T11:50:11;5.40;;;2.83;;
53497;SDS011;39382;47.168;16.008;2023-05-09T11:52:38;2.85;;;2.58;;
53497;SDS011;39382;47.168;16.008;2023-05-09T11:55:05;2.88;;;2.35;;
53497;SDS011;39382;47.168;16.008;2023-05-09T11:57:33;3.55;;;2.55;;
53497;SDS011;39382;47.168;16.008;2023-05-09T12:00:00;3.47;;;2.40;;
53497;SDS011;39382;47.168;16.008;2023-05-09T12:02:28;3.00;;;2.05;;
53497;SDS011;39382;47.168;16.008;2023-05-09T12:04:54;2.47;;;2.03;;
53497;SDS011;39382;47.168;16.008;2023-05-09T12:07:20;1.88;;;1.73;;
53497;SDS011;39382;47.168;16.008;2023-05-09T12:09:46;2.08;;;1.50;;
53497;SDS011;39382;47.168;16.008;2023-05-09T12:12:13;2.00;;;1.48;;
53497;SDS011;39382;47.168;16.008;2023-05-09T12:14:41;5.25;;;1.88;;
53497;SDS011;39382;47.168;16.008;2023-05-09T12:17:07;2.47;;;2.28;;
53497;SDS011;39382;47.168;16.008;2023-05-09T12:19:33;1.80;;;1.70;;
53497;SDS011;39382;47.168;16.008;2023-05-09T12:22:00;2.10;;;1.60;;
53497;SDS011;39382;47.168;16.008;2023-05-09T12:24:28;2.33;;;2.03;;
53497;SDS011;39382;47.168;16.008;2023-05-09T12:26:55;2.30;;;1.63;;
53497;SDS011;39382;47.168;16.008;2023-05-09T12:29:21;1.38;;;1.25;;
53497;SDS011;39382;47.168;16.008;2023-05-09T12:31:49;3.35;;;1.90;;
53497;SDS011;39382;47.168;16.008;2023-05-09T12:34:16;3.40;;;2.50;;
53497;SDS011;39382;47.168;16.008;2023-05-09T12:36:42;2.45;;;1.88;;
53497;SDS011;39382;47.168;16.008;2023-05-09T12:39:16;1.70;;;1.60;;
53497;SDS011;39382;47.168;16.008;2023-05-09T12:41:45;3.00;;;2.00;;
53497;SDS011;39382;47.168;16.008;2023-05-09T12:44:23;1.77;;;1.27;;
53497;SDS011;39382;47.168;16.008;2023-05-09T12:47:07;1.60;;;1.30;;
53497;SDS011;39382;47.168;16.008;2023-05-09T12:49:36;3.15;;;2.10;;
53497;SDS011;39382;47.168;16.008;2023-05-09T12:52:02;5.32;;;1.70;;
53497;SDS011;39382;47.168;16.008;2023-05-09T12:54:28;1.77;;;1.63;;
53497;SDS011;39382;47.168;16.008;2023-05-09T12:56:54;1.90;;;1.77;;
53497;SDS011;39382;47.168;16.008;2023-05-09T12:59:22;2.28;;;2.08;;
53497;SDS011;39382;47.168;16.008;2023-05-09T13:04:20;3.50;;;2.08;;
53497;SDS011;39382;47.168;16.008;2023-05-09T13:06:50;1.52;;;1.42;;
53497;SDS011;39382;47.168;16.008;2023-05-09T13:09:19;7.97;;;2.40;;
53497;SDS011;39382;47.168;16.008;2023-05-09T13:11:46;3.70;;;1.90;;
53497;SDS011;39382;47.168;16.008;2023-05-09T13:14:12;2.42;;;1.92;;
53497;SDS011;39382;47.168;16.008;2023-05-09T13:16:38;2.38;;;1.40;;
53497;SDS011;39382;47.168;16.008;2023-05-09T13:19:04;8.75;;;1.98;;
53497;SDS011;39382;47.168;16.008;2023-05-09T13:21:30;5.80;;;1.75;;
53497;SDS011;39382;47.168;16.008;2023-05-09T13:23:56;6.05;;;1.52;;
53497;SDS011;39382;47.168;16.008;2023-05-09T13:26:22;8.18;;;2.10;;
53497;SDS011;39382;47.168;16.008;2023-05-09T13:28:47;3.30;;;1.65;;
53497;SDS011;39382;47.168;16.008;2023-05-09T13:31:13;2.80;;;1.65;;
53497;SDS011;39382;47.168;16.008;2023-05-09T13:33:39;1.88;;;1.38;;
53497;SDS011;39382;47.168;16.008;2023-05-09T13:36:04;1.80;;;1.30;;
53497;SDS011;39382;47.168;16.008;2023-05-09T13:38:31;3.65;;;1.92;;
53497;SDS011;39382;47.168;16.008;2023-05-09T13:41:00;1.75;;;1.30;;
53497;SDS011;39382;47.168;16.008;2023-05-09T13:43:26;2.13;;;1.92;;
53497;SDS011;39382;47.168;16.008;2023-05-09T13:45:51;5.05;;;1.67;;
53497;SDS011;39382;47.168;16.008;2023-05-09T13:48:17;1.60;;;1.50;;
53497;SDS011;39382;47.168;16.008;2023-05-09T13:50:43;2.50;;;1.40;;
53497;SDS011;39382;47.168;16.008;2023-05-09T13:53:08;1.80;;;1.70;;
53497;SDS011;39382;47.168;16.008;2023-05-09T13:55:34;1.70;;;1.60;;
53497;SDS011;39382;47.168;16.008;2023-05-09T13:58:00;1.55;;;1.45;;
53497;SDS011;39382;47.168;16.008;2023-05-09T14:00:26;3.35;;;1.83;;
53497;SDS011;39382;47.168;16.008;2023-05-09T14:02:52;1.75;;;1.40;;
53497;SDS011;39382;47.168;16.008;2023-05-09T14:05:17;1.35;;;1.25;;
53497;SDS011;39382;47.168;16.008;2023-05-09T14:07:43;1.10;;;0.98;;
53497;SDS011;39382;47.168;16.008;2023-05-09T14:10:10;2.85;;;1.73;;
53497;SDS011;39382;47.168;16.008;2023-05-09T14:12:36;1.40;;;1.00;;
53497;SDS011;39382;47.168;16.008;2023-05-09T14:15:04;2.65;;;1.30;;
53497;SDS011;39382;47.168;16.008;2023-05-09T14:17:31;1.58;;;1.25;;
53497;SDS011;39382;47.168;16.008;2023-05-09T14:19:57;4.35;;;1.60;;
53497;SDS011;39382;47.168;16.008;2023-05-09T14:22:22;2.55;;;1.75;;
53497;SDS011;39382;47.168;16.008;2023-05-09T14:24:48;1.60;;;1.50;;
53497;SDS011;39382;47.168;16.008;2023-05-09T14:27:14;1.60;;;1.50;;
53497;SDS011;39382;47.168;16.008;2023-05-09T14:29:40;1.40;;;1.23;;
53497;SDS011;39382;47.168;16.008;2023-05-09T14:32:07;1.67;;;1.38;;
53497;SDS011;39382;47.168;16.008;2023-05-09T14:34:36;1.20;;;1.00;;
53497;SDS011;39382;47.168;16.008;2023-05-09T14:37:03;1.45;;;1.35;;
53497;SDS011;39382;47.168;16.008;2023-05-09T14:39:28;1.45;;;1.35;;
53497;SDS011;39382;47.168;16.008;2023-05-09T14:41:54;1.10;;;0.98;;
53497;SDS011;39382;47.168;16.008;2023-05-09T14:44:20;5.07;;;1.35;;
53497;SDS011;39382;47.168;16.008;2023-05-09T14:46:48;3.28;;;1.58;;
53497;SDS011;39382;47.168;16.008;2023-05-09T14:49:14;2.10;;;1.80;;
53497;SDS011;39382;47.168;16.008;2023-05-09T14:51:40;29.67;;;13.18;;
53497;SDS011;39382;47.168;16.008;2023-05-09T14:54:05;8.82;;;5.57;;
53497;SDS011;39382;47.168;16.008;2023-05-09T14:56:31;4.10;;;3.47;;